createdAt,value
2018-08-13T00:01:15.451Z,1.30
2018-08-13T00:03:44.334Z,1.40
2018-08-13T00:06:13.519Z,1.27
2018-08-13T00:08:42.533Z,1.20
2018-08-13T00:11:11.120Z,1.27
2018-08-13T00:13:40.224Z,1.30
2018-08-13T00:16:08.512Z,1.43
2018-08-13T00:18:37.691Z,1.27
2018-08-13T00:21:06.759Z,1.17
2018-08-13T00:23:35.415Z,1.37
2018-08-13T00:26:04.887Z,1.50
2018-08-13T00:28:33.895Z,1.53
2018-08-13T00:31:02.967Z,1.03
2018-08-13T00:33:31.903Z,1.13
2018-08-13T00:36:01.196Z,1.30
2018-08-13T00:38:30.287Z,1.23
2018-08-13T00:40:59.305Z,1.00
2018-08-13T00:43:28.483Z,1.03
2018-08-13T00:45:57.911Z,1.20
2018-08-13T00:48:26.971Z,1.20
2018-08-13T00:50:56.168Z,1.40
2018-08-13T00:53:25.524Z,1.10
2018-08-13T00:55:54.404Z,1.13
2018-08-13T00:58:23.699Z,1.00
2018-08-13T01:00:52.923Z,1.30
2018-08-13T01:03:22.763Z,1.20
2018-08-13T01:05:51.867Z,1.00
2018-08-13T01:08:20.921Z,1.30
2018-08-13T01:10:49.629Z,1.30
2018-08-13T01:13:18.499Z,1.30
2018-08-13T01:15:46.984Z,1.50
2018-08-13T01:18:16.359Z,1.60
2018-08-13T01:20:45.899Z,1.50
2018-08-13T01:23:14.491Z,1.40
2018-08-13T01:25:43.426Z,1.30
2018-08-13T01:28:12.340Z,1.50
2018-08-13T01:30:40.715Z,1.70
2018-08-13T01:33:09.382Z,1.30
2018-08-13T01:35:38.320Z,1.60
2018-08-13T01:38:07.372Z,1.60
2018-08-13T01:40:36.369Z,1.40
2018-08-13T01:43:05.008Z,1.53
2018-08-13T01:45:34.273Z,1.17
2018-08-13T01:48:03.258Z,1.60
2018-08-13T01:50:32.143Z,1.67
2018-08-13T01:53:00.699Z,1.63
2018-08-13T01:55:29.372Z,1.50
2018-08-13T01:57:58.639Z,1.70
2018-08-13T02:00:27.687Z,1.50
2018-08-13T02:02:56.829Z,1.63
2018-08-13T02:05:26.120Z,1.30
2018-08-13T02:07:55.442Z,1.50
2018-08-13T02:10:24.475Z,1.60
2018-08-13T02:12:53.822Z,1.40
2018-08-13T02:15:23.159Z,1.50
2018-08-13T02:17:52.548Z,1.47
2018-08-13T02:20:22.863Z,1.43
2018-08-13T02:22:51.986Z,1.80
2018-08-13T02:25:20.881Z,1.50
2018-08-13T02:27:49.879Z,1.70
2018-08-13T02:30:19.160Z,1.67
2018-08-13T02:32:48.160Z,1.50
2018-08-13T02:35:16.904Z,1.60
2018-08-13T02:37:45.772Z,2.03
2018-08-13T02:40:14.947Z,1.60
2018-08-13T02:42:43.936Z,1.77
2018-08-13T02:45:12.693Z,1.93
2018-08-13T02:47:41.876Z,1.53
2018-08-13T02:50:12.084Z,1.70
2018-08-13T02:52:41.265Z,1.67
2018-08-13T02:55:11.371Z,1.57
2018-08-13T02:57:40.068Z,1.67
2018-08-13T03:00:10.301Z,1.70
2018-08-13T03:02:39.450Z,1.50
2018-08-13T03:05:09.992Z,1.70
2018-08-13T03:07:39.824Z,1.83
2018-08-13T03:10:14.217Z,1.70
2018-08-13T03:12:43.560Z,1.70
2018-08-13T03:15:14.125Z,1.70
2018-08-13T03:17:42.599Z,2.00
2018-08-13T03:20:12.011Z,1.90
2018-08-13T03:22:40.795Z,1.90
2018-08-13T03:25:09.780Z,1.63
2018-08-13T03:27:38.788Z,1.60
2018-08-13T03:30:12.206Z,1.63
2018-08-13T03:32:41.908Z,2.00
2018-08-13T03:35:10.867Z,1.97
2018-08-13T03:37:39.999Z,1.87
2018-08-13T03:40:11.528Z,2.40
2018-08-13T03:42:40.460Z,1.83
2018-08-13T03:45:10.792Z,1.80
2018-08-13T03:47:40.841Z,1.80
2018-08-13T03:50:11.079Z,1.97
2018-08-13T03:52:40.759Z,1.90
2018-08-13T03:55:11.007Z,1.80
2018-08-13T03:57:40.700Z,1.70
2018-08-13T04:00:11.696Z,1.70
2018-08-13T04:02:40.516Z,1.90
2018-08-13T04:05:10.305Z,2.00
2018-08-13T04:07:40.168Z,2.13
2018-08-13T04:10:09.699Z,1.87
2018-08-13T04:12:40.115Z,1.90
2018-08-13T04:15:09.395Z,1.90
2018-08-13T04:17:38.580Z,1.80
2018-08-13T04:20:08.663Z,1.90
2018-08-13T04:22:37.811Z,1.80
2018-08-13T04:25:08.200Z,2.03
2018-08-13T04:27:41.740Z,1.90
2018-08-13T04:30:13.305Z,1.90
2018-08-13T04:32:42.985Z,1.90
2018-08-13T04:35:13.168Z,1.87
2018-08-13T04:37:42.796Z,1.87
2018-08-13T04:40:13.155Z,1.70
2018-08-13T04:42:43.511Z,1.70
2018-08-13T04:45:12.211Z,1.77
2018-08-13T04:47:42.296Z,2.00
2018-08-13T04:50:10.946Z,1.93
2018-08-13T04:52:40.140Z,1.70
2018-08-13T04:55:09.317Z,1.60
2018-08-13T04:57:38.954Z,2.17
2018-08-13T05:00:08.260Z,1.70
2018-08-13T05:02:37.560Z,1.63
2018-08-13T05:05:06.572Z,1.80
2018-08-13T05:07:35.740Z,1.60
2018-08-13T05:10:05.369Z,1.70
2018-08-13T05:12:34.512Z,1.60
2018-08-13T05:15:04.150Z,1.40
2018-08-13T05:17:33.059Z,1.70
2018-08-13T05:20:02.470Z,1.40
2018-08-13T05:22:31.034Z,1.50
2018-08-13T05:25:00.056Z,1.40
2018-08-13T05:27:29.699Z,1.50
2018-08-13T05:29:59.078Z,1.37
2018-08-13T05:32:28.016Z,1.33
2018-08-13T05:34:57.164Z,1.37
2018-08-13T05:37:27.038Z,1.30
2018-08-13T05:39:57.161Z,1.37
2018-08-13T05:42:26.349Z,1.50
2018-08-13T05:44:56.147Z,1.20
2018-08-13T05:47:24.711Z,1.60
2018-08-13T05:49:54.116Z,1.50
2018-08-13T05:52:24.239Z,1.33
2018-08-13T05:54:52.828Z,1.70
2018-08-13T05:57:21.509Z,1.23
2018-08-13T05:59:50.719Z,1.40
2018-08-13T06:02:19.875Z,1.27
2018-08-13T06:04:49.196Z,1.10
2018-08-13T06:07:18.309Z,1.10
2018-08-13T06:09:47.166Z,1.23
2018-08-13T06:12:16.579Z,1.40
2018-08-13T06:14:45.618Z,1.03
2018-08-13T06:17:14.880Z,0.90
2018-08-13T06:19:44.487Z,1.57
2018-08-13T06:22:13.692Z,1.27
2018-08-13T06:24:42.688Z,1.07
2018-08-13T06:27:12.273Z,0.90
2018-08-13T06:29:41.662Z,1.10
2018-08-13T06:32:10.604Z,1.30
2018-08-13T06:34:39.982Z,1.10
2018-08-13T06:37:08.968Z,1.10
2018-08-13T06:39:38.943Z,1.63
2018-08-13T06:42:08.055Z,0.90
2018-08-13T06:44:37.916Z,1.00
2018-08-13T06:47:06.784Z,1.00
2018-08-13T06:49:35.852Z,1.13
2018-08-13T06:52:04.911Z,1.20
2018-08-13T06:54:33.838Z,1.00
2018-08-13T06:57:03.084Z,1.60
2018-08-13T06:59:32.627Z,0.93
2018-08-13T07:02:01.760Z,1.00
2018-08-13T07:04:31.020Z,1.20
2018-08-13T07:07:00.997Z,1.10
2018-08-13T07:09:31.082Z,1.13
2018-08-13T07:12:01.064Z,1.20
2018-08-13T07:14:30.360Z,1.13
2018-08-13T07:16:59.391Z,1.00
2018-08-13T07:19:29.302Z,1.03
2018-08-13T07:21:58.645Z,1.23
2018-08-13T07:24:27.809Z,1.20
2018-08-13T07:26:57.114Z,0.97
2018-08-13T07:29:26.575Z,1.00
2018-08-13T07:31:55.723Z,1.23
2018-08-13T07:34:25.027Z,1.10
2018-08-13T07:36:54.307Z,1.10
2018-08-13T07:39:23.745Z,1.10
2018-08-13T07:41:52.836Z,1.17
2018-08-13T07:44:22.691Z,0.90
2018-08-13T07:46:51.942Z,1.00
2018-08-13T07:49:21.163Z,1.00
2018-08-13T07:51:50.457Z,1.00
2018-08-13T07:54:19.781Z,0.90
2018-08-13T07:56:49.079Z,1.17
2018-08-13T07:59:18.368Z,0.90
2018-08-13T08:01:48.175Z,1.07
2018-08-13T08:04:20.979Z,0.97
2018-08-13T08:06:50.178Z,0.83
2018-08-13T08:09:19.917Z,0.80
2018-08-13T08:11:49.244Z,0.73
2018-08-13T08:14:18.181Z,0.80
2018-08-13T08:16:48.121Z,1.13
2018-08-13T08:19:17.296Z,0.80
2018-08-13T08:21:46.409Z,1.07
2018-08-13T08:24:15.330Z,0.80
2018-08-13T08:26:44.084Z,1.20
2018-08-13T08:29:13.521Z,1.10
2018-08-13T08:31:42.714Z,1.10
2018-08-13T08:34:13.096Z,0.90
2018-08-13T08:36:42.039Z,1.00
2018-08-13T08:39:18.857Z,1.00
2018-08-13T08:41:48.128Z,1.13
2018-08-13T08:44:17.511Z,1.20
2018-08-13T08:46:46.394Z,0.80
2018-08-13T08:49:15.603Z,0.80
2018-08-13T08:51:44.728Z,1.10
2018-08-13T08:54:13.975Z,1.00
2018-08-13T08:56:43.239Z,1.03
2018-08-13T08:59:12.931Z,0.80
2018-08-13T09:01:42.632Z,1.17
2018-08-13T09:04:11.943Z,0.90
2018-08-13T09:06:41.956Z,1.10
2018-08-13T09:09:12.739Z,0.80
2018-08-13T09:11:43.168Z,0.80
2018-08-13T09:14:12.149Z,0.80
2018-08-13T09:16:42.420Z,1.60
2018-08-13T09:19:17.559Z,0.70
2018-08-13T09:21:47.735Z,1.00
2018-08-13T09:24:22.012Z,0.77
2018-08-13T09:26:56.453Z,0.70
2018-08-13T09:29:31.436Z,1.10
2018-08-13T09:32:23.864Z,0.70
2018-08-13T09:34:56.360Z,0.80
2018-08-13T09:37:24.723Z,0.70
2018-08-13T09:39:54.255Z,0.93
2018-08-13T09:42:24.125Z,0.90
2018-08-13T09:44:53.368Z,0.70
2018-08-13T09:47:23.248Z,0.90
2018-08-13T09:49:52.633Z,0.80
2018-08-13T09:52:22.248Z,0.87
2018-08-13T09:54:51.403Z,0.80
2018-08-13T09:57:20.747Z,0.90
2018-08-13T09:59:49.855Z,0.87
2018-08-13T10:02:18.782Z,0.80
2018-08-13T10:04:48.368Z,0.90
2018-08-13T10:07:17.379Z,1.23
2018-08-13T10:09:46.560Z,1.00
2018-08-13T10:12:15.516Z,0.70
2018-08-13T10:14:45.071Z,0.77
2018-08-13T10:17:14.513Z,0.70
2018-08-13T10:19:43.883Z,0.83
2018-08-13T10:22:13.190Z,0.90
2018-08-13T10:24:42.139Z,0.50
2018-08-13T10:27:11.025Z,0.90
2018-08-13T10:29:39.484Z,0.70
2018-08-13T10:32:09.075Z,0.70
2018-08-13T10:34:38.095Z,0.80
2018-08-13T10:37:07.700Z,0.83
2018-08-13T10:39:36.305Z,0.80
2018-08-13T10:42:05.695Z,0.70
2018-08-13T10:44:34.898Z,0.73
2018-08-13T10:47:03.984Z,0.90
2018-08-13T10:49:32.744Z,0.80
2018-08-13T10:52:02.196Z,0.70
2018-08-13T10:54:31.699Z,0.90
2018-08-13T10:57:01.215Z,0.82
2018-08-13T10:59:30.543Z,0.80
2018-08-13T11:01:59.748Z,0.80
2018-08-13T11:04:29.150Z,0.70
2018-08-13T11:06:58.255Z,0.60
2018-08-13T11:09:27.612Z,0.60
2018-08-13T11:11:56.915Z,0.60
2018-08-13T11:14:25.363Z,0.70
2018-08-13T11:16:53.740Z,0.70
2018-08-13T11:19:23.679Z,0.60
2018-08-13T11:21:53.008Z,0.80
2018-08-13T11:24:22.296Z,0.80
2018-08-13T11:26:51.067Z,0.70
2018-08-13T11:29:20.448Z,0.70
2018-08-13T11:31:49.618Z,0.72
2018-08-13T11:34:18.776Z,0.90
2018-08-13T11:36:47.828Z,0.70
2018-08-13T11:39:16.840Z,0.65
2018-08-13T11:41:45.828Z,0.80
2018-08-13T11:44:15.032Z,0.80
2018-08-13T11:46:44.381Z,0.80
2018-08-13T11:49:13.720Z,0.70
2018-08-13T11:51:43.048Z,0.90
2018-08-13T11:54:11.974Z,0.70
2018-08-13T11:56:41.264Z,0.70
2018-08-13T11:59:10.839Z,0.55
2018-08-13T12:01:39.772Z,0.78
2018-08-13T12:04:09.141Z,0.90
2018-08-13T12:06:38.340Z,0.70
2018-08-13T12:09:08.416Z,0.70
2018-08-13T12:11:38.000Z,0.90
2018-08-13T12:14:07.328Z,0.80
2018-08-13T12:16:36.683Z,1.00
2018-08-13T12:19:05.852Z,0.70
2018-08-13T12:21:34.532Z,0.90
2018-08-13T12:24:03.680Z,0.85
2018-08-13T12:26:33.228Z,0.80
2018-08-13T12:29:01.948Z,0.90
2018-08-13T12:31:30.719Z,0.98
2018-08-13T12:33:59.793Z,1.00
2018-08-13T12:36:29.766Z,0.90
2018-08-13T12:38:58.502Z,0.70
2018-08-13T12:41:27.708Z,1.00
2018-08-13T12:43:56.882Z,0.82
2018-08-13T12:46:26.187Z,0.90
2018-08-13T12:48:55.005Z,1.00
2018-08-13T12:51:24.697Z,1.00
2018-08-13T12:53:53.944Z,0.90
2018-08-13T12:56:23.422Z,1.02
2018-08-13T12:58:52.652Z,1.27
2018-08-13T13:01:21.984Z,1.00
2018-08-13T13:03:51.296Z,1.00
2018-08-13T13:06:20.240Z,1.05
2018-08-13T13:08:54.245Z,1.05
2018-08-13T13:11:23.632Z,1.02
2018-08-13T13:13:52.740Z,1.17
2018-08-13T13:16:21.445Z,0.90
2018-08-13T13:18:50.394Z,0.90
2018-08-13T13:21:19.421Z,1.00
2018-08-13T13:23:48.719Z,1.00
2018-08-13T13:26:17.990Z,0.98
2018-08-13T13:28:47.331Z,0.98
2018-08-13T13:31:17.171Z,1.00
2018-08-13T13:33:46.449Z,0.90
2018-08-13T13:36:15.168Z,0.88
2018-08-13T13:38:44.694Z,0.98
2018-08-13T13:41:13.900Z,0.80
2018-08-13T13:43:43.301Z,1.00
2018-08-13T13:46:12.717Z,0.90
2018-08-13T13:48:41.315Z,0.90
2018-08-13T13:51:10.107Z,0.80
2018-08-13T13:53:39.070Z,1.00
2018-08-13T13:56:07.756Z,0.90
2018-08-13T13:58:36.743Z,0.80
2018-08-13T14:01:05.792Z,2.27
2018-08-13T14:03:35.236Z,0.98
2018-08-13T14:06:03.863Z,1.10
2018-08-13T14:08:32.931Z,0.80
2018-08-13T14:11:01.920Z,1.00
2018-08-13T14:13:31.457Z,1.00
2018-08-13T14:16:00.894Z,0.80
2018-08-13T14:18:30.088Z,0.95
2018-08-13T14:20:58.776Z,1.05
2018-08-13T14:23:27.835Z,0.93
2018-08-13T14:25:56.833Z,1.00
2018-08-13T14:28:26.033Z,0.90
2018-08-13T14:30:55.359Z,1.10
2018-08-13T14:33:24.154Z,0.90
2018-08-13T14:35:53.536Z,0.85
2018-08-13T14:38:23.044Z,1.00
2018-08-13T14:40:51.980Z,1.10
2018-08-13T14:43:20.858Z,0.82
2018-08-13T14:45:49.949Z,0.90
2018-08-13T14:48:18.917Z,0.95
2018-08-13T14:50:48.295Z,0.90
2018-08-13T14:53:17.622Z,0.82
2018-08-13T14:55:46.368Z,0.85
2018-08-13T14:58:15.501Z,0.88
2018-08-13T15:00:44.944Z,1.00
2018-08-13T15:03:13.319Z,0.80
2018-08-13T15:05:42.226Z,0.70
2018-08-13T15:08:11.219Z,0.90
2018-08-13T15:10:40.036Z,0.82
2018-08-13T15:13:09.587Z,0.90
2018-08-13T15:15:38.819Z,0.80
2018-08-13T15:18:08.132Z,0.70
2018-08-13T15:20:36.816Z,0.60
2018-08-13T15:23:06.188Z,0.70
2018-08-13T15:25:35.634Z,0.70
2018-08-13T15:28:05.943Z,0.98
2018-08-13T15:30:34.863Z,0.80
2018-08-13T15:33:04.885Z,0.78
2018-08-13T15:35:33.976Z,0.95
2018-08-13T15:38:03.287Z,0.80
2018-08-13T15:40:32.326Z,0.82
2018-08-13T15:43:01.572Z,1.00
2018-08-13T15:45:31.552Z,0.80
2018-08-13T15:48:00.589Z,0.93
2018-08-13T15:50:30.883Z,0.80
2018-08-13T15:52:59.856Z,0.85
2018-08-13T15:55:28.574Z,1.00
2018-08-13T15:57:57.863Z,0.98
2018-08-13T16:00:27.679Z,1.00
2018-08-13T16:02:57.248Z,0.80
2018-08-13T16:05:26.320Z,0.93
2018-08-13T16:07:55.759Z,1.00
2018-08-13T16:10:24.852Z,0.70
2018-08-13T16:12:55.716Z,0.90
2018-08-13T16:15:24.786Z,0.93
2018-08-13T16:17:53.952Z,0.80
2018-08-13T16:20:22.539Z,0.80
2018-08-13T16:22:51.543Z,0.90
2018-08-13T16:25:20.447Z,1.00
2018-08-13T16:27:49.852Z,1.00
2018-08-13T16:30:20.849Z,1.00
2018-08-13T16:32:50.131Z,1.35
2018-08-13T16:35:19.727Z,0.80
2018-08-13T16:37:48.947Z,0.90
2018-08-13T16:40:18.836Z,0.90
2018-08-13T16:42:48.539Z,0.90
2018-08-13T16:45:17.699Z,0.90
2018-08-13T16:47:46.346Z,1.05
2018-08-13T16:50:17.667Z,0.82
2018-08-13T16:52:46.939Z,1.10
2018-08-13T16:55:16.032Z,0.80
2018-08-13T16:57:44.938Z,0.70
2018-08-13T17:00:15.419Z,0.70
2018-08-13T17:02:44.384Z,0.90
2018-08-13T17:05:13.365Z,0.90
2018-08-13T17:07:43.460Z,0.80
2018-08-13T17:10:15.379Z,0.90
2018-08-13T17:12:44.431Z,0.85
2018-08-13T17:15:13.249Z,0.90
2018-08-13T17:17:42.899Z,0.90
2018-08-13T17:20:13.160Z,0.82
2018-08-13T17:22:43.892Z,0.80
2018-08-13T17:25:14.056Z,0.78
2018-08-13T17:27:45.387Z,0.90
2018-08-13T17:30:15.615Z,0.80
2018-08-13T17:32:45.528Z,0.90
2018-08-13T17:35:15.432Z,0.90
2018-08-13T17:37:45.275Z,0.82
2018-08-13T17:40:15.403Z,0.85
2018-08-13T17:42:46.580Z,0.70
2018-08-13T17:45:15.419Z,0.70
2018-08-13T17:47:44.663Z,0.93
2018-08-13T17:50:14.128Z,0.90
2018-08-13T17:52:44.680Z,0.98
2018-08-13T17:55:14.060Z,1.10
2018-08-13T17:57:43.448Z,0.80
2018-08-13T18:00:21.085Z,0.85
2018-08-13T18:02:50.083Z,0.80
2018-08-13T18:05:20.938Z,0.93
2018-08-13T18:07:50.330Z,1.10
2018-08-13T18:10:26.348Z,0.82
2018-08-13T18:12:56.764Z,0.90
2018-08-13T18:15:27.024Z,1.00
2018-08-13T18:17:55.887Z,0.72
2018-08-13T18:20:25.329Z,0.80
2018-08-13T18:22:54.638Z,1.00
2018-08-13T18:25:23.631Z,0.98
2018-08-13T18:27:53.359Z,1.00
2018-08-13T18:30:24.032Z,1.00
2018-08-13T18:32:53.563Z,1.02
2018-08-13T18:35:22.727Z,0.90
2018-08-13T18:37:55.547Z,0.80
2018-08-13T18:40:27.246Z,0.93
2018-08-13T18:42:57.092Z,0.90
2018-08-13T18:45:26.451Z,1.20
2018-08-13T18:47:55.798Z,1.20
2018-08-13T18:50:24.639Z,1.20
2018-08-13T18:52:53.751Z,1.00
2018-08-13T18:55:23.445Z,1.00
2018-08-13T18:57:52.869Z,1.12
2018-08-13T19:00:25.720Z,1.10
2018-08-13T19:02:55.268Z,1.00
2018-08-13T19:05:24.388Z,1.00
2018-08-13T19:07:53.522Z,1.00
2018-08-13T19:10:22.860Z,1.10
2018-08-13T19:12:51.720Z,1.20
2018-08-13T19:15:21.996Z,1.45
2018-08-13T19:17:52.223Z,1.20
2018-08-13T19:20:21.664Z,1.20
2018-08-13T19:22:50.723Z,1.47
2018-08-13T19:25:21.744Z,1.60
2018-08-13T19:27:50.645Z,1.30
2018-08-13T19:30:20.012Z,1.40
2018-08-13T19:32:50.729Z,1.23
2018-08-13T19:35:20.210Z,1.23
2018-08-13T19:37:49.937Z,1.40
2018-08-13T19:40:20.308Z,1.53
2018-08-13T19:42:50.176Z,1.57
2018-08-13T19:45:19.682Z,1.30
2018-08-13T19:47:49.237Z,1.40
2018-08-13T19:50:18.352Z,1.40
2018-08-13T19:52:48.609Z,0.90
2018-08-13T19:55:18.601Z,1.20
2018-08-13T19:57:47.718Z,1.30
2018-08-13T20:00:21.391Z,1.50
2018-08-13T20:02:50.959Z,1.60
2018-08-13T20:05:21.656Z,1.50
2018-08-13T20:07:51.176Z,1.40
2018-08-13T20:10:20.308Z,1.30
2018-08-13T20:12:50.164Z,1.17
2018-08-13T20:15:19.220Z,1.07
2018-08-13T20:17:47.912Z,1.27
2018-08-13T20:20:18.540Z,1.20
2018-08-13T20:22:48.560Z,1.10
2018-08-13T20:25:17.913Z,1.23
2018-08-13T20:27:47.380Z,1.13
2018-08-13T20:30:19.247Z,1.17
2018-08-13T20:32:49.104Z,1.27
2018-08-13T20:35:18.156Z,1.30
2018-08-13T20:37:47.297Z,1.07
2018-08-13T20:40:17.687Z,1.00
2018-08-13T20:42:47.335Z,1.07
2018-08-13T20:45:17.268Z,1.10
2018-08-13T20:47:46.524Z,1.00
2018-08-13T20:50:17.420Z,1.10
2018-08-13T20:52:46.559Z,1.10
2018-08-13T20:55:16.921Z,1.23
2018-08-13T20:57:46.700Z,1.10
2018-08-13T21:00:17.304Z,0.93
2018-08-13T21:02:47.195Z,1.30
2018-08-13T21:05:16.770Z,1.10
2018-08-13T21:07:47.015Z,1.30
2018-08-13T21:10:16.968Z,1.00
2018-08-13T21:12:45.924Z,0.90
2018-08-13T21:15:16.031Z,1.40
2018-08-13T21:17:45.656Z,1.17
2018-08-13T21:20:30.604Z,1.30
2018-08-13T21:23:00.135Z,1.20
2018-08-13T21:25:29.337Z,1.40
2018-08-13T21:27:58.311Z,1.10
2018-08-13T21:30:27.276Z,1.03
2018-08-13T21:32:56.291Z,0.90
2018-08-13T21:35:26.300Z,1.00
2018-08-13T21:37:54.867Z,1.10
2018-08-13T21:42:46.120Z,1.10
2018-08-13T21:45:15.308Z,1.00
2018-08-13T21:47:44.965Z,1.10
2018-08-13T21:50:15.735Z,1.50
2018-08-13T21:52:45.316Z,1.10
2018-08-13T21:55:14.721Z,1.20
2018-08-13T21:57:44.870Z,1.00
2018-08-13T22:00:36.261Z,1.07
2018-08-13T22:03:05.056Z,1.10
2018-08-13T22:05:33.768Z,1.10
2018-08-13T22:08:02.642Z,1.20
2018-08-13T22:10:31.683Z,1.07
2018-08-13T22:13:01.166Z,1.10
2018-08-13T22:15:34.248Z,1.10
2018-08-13T22:18:04.488Z,1.20
2018-08-13T22:20:34.218Z,1.03
2018-08-13T22:23:04.144Z,1.20
2018-08-13T22:25:35.855Z,1.20
2018-08-13T22:28:05.033Z,1.00
2018-08-13T22:30:34.563Z,1.10
2018-08-13T22:33:03.389Z,1.30
2018-08-13T22:35:32.479Z,1.50
2018-08-13T22:38:01.597Z,1.23
2018-08-13T22:40:30.760Z,1.40
2018-08-13T22:43:00.084Z,1.20
2018-08-13T22:45:29.331Z,1.20
2018-08-13T22:47:58.454Z,1.30
2018-08-13T22:50:27.763Z,1.77
2018-08-13T22:52:57.111Z,1.83
2018-08-13T22:55:26.099Z,1.83
2018-08-13T22:57:55.420Z,1.93
2018-08-13T23:00:24.549Z,2.17
2018-08-13T23:02:52.984Z,2.10
2018-08-13T23:05:23.396Z,1.83
2018-08-13T23:07:52.131Z,1.87
2018-08-13T23:10:22.536Z,1.90
2018-08-13T23:12:52.238Z,1.87
2018-08-13T23:15:21.327Z,1.77
2018-08-13T23:17:50.677Z,1.63
2018-08-13T23:20:26.387Z,1.77
2018-08-13T23:23:02.443Z,1.57
2018-08-13T23:25:33.222Z,1.23
2018-08-13T23:28:03.896Z,1.20
2018-08-13T23:30:32.742Z,1.40
2018-08-13T23:33:02.137Z,1.67
2018-08-13T23:35:31.751Z,1.50
2018-08-13T23:38:01.177Z,1.33
2018-08-13T23:40:30.409Z,1.27
2018-08-13T23:42:59.671Z,1.30
2018-08-13T23:45:31.299Z,1.20
2018-08-13T23:48:00.595Z,1.00
2018-08-13T23:50:29.999Z,1.20
2018-08-13T23:52:59.923Z,1.70
2018-08-13T23:55:36.468Z,1.40
2018-08-13T23:58:05.860Z,1.30
